Time;durP1;ratioP1;P1;durP2;ratioP2;P2;SDS_P1;SDS_P2;PMS_P1;PMS_P2;Temp;Humidity;BMP_temperature;BMP_pressure;BME280_temperature;BME280_humidity;BME280_pressure;Samples;Min_cycle;Max_cycle;Signal;HPM_P1;HPM_P2
2021/05/14 00:01:49;;;;;;;4.30;3.90;;;13.30;99.90;;;;;;5051962;28;20460;-48
2021/05/14 00:04:16;;;;;;;4.40;4.00;;;13.40;99.90;;;;;;5051603;28;20799;-49
2021/05/14 00:06:42;;;;;;;5.23;3.80;;;13.40;99.90;;;;;;5051768;28;20513;-49
2021/05/14 00:09:08;;;;;;;5.03;4.20;;;13.10;99.90;;;;;;5052486;28;20476;-48
2021/05/14 00:11:36;;;;;;;5.60;4.07;;;13.10;99.90;;;;;;5052383;28;20502;-48
2021/05/14 00:14:02;;;;;;;4.60;4.00;;;13.10;99.90;;;;;;5052116;28;20525;-48
2021/05/14 00:16:28;;;;;;;4.23;3.63;;;13.10;99.90;;;;;;5052249;28;20436;-48
2021/05/14 00:18:55;;;;;;;3.47;3.17;;;13.30;99.90;;;;;;5034035;28;20450;-48
2021/05/14 00:21:21;;;;;;;3.60;3.30;;;13.00;99.90;;;;;;5051002;28;21050;-48
2021/05/14 00:23:47;;;;;;;5.73;3.30;;;13.10;99.90;;;;;;5050720;28;20451;-49
2021/05/14 00:26:15;;;;;;;4.03;3.60;;;13.00;99.90;;;;;;5050771;28;20533;-48
2021/05/14 00:28:42;;;;;;;3.60;3.03;;;13.20;99.90;;;;;;5050463;28;20833;-48
2021/05/14 00:31:08;;;;;;;3.53;3.23;;;13.20;99.90;;;;;;5050945;28;21000;-48
2021/05/14 00:33:34;;;;;;;3.90;3.53;;;13.30;99.90;;;;;;5050788;28;20450;-49
2021/05/14 00:36:00;;;;;;;4.53;3.10;;;13.40;99.90;;;;;;5051121;28;20901;-48
2021/05/14 00:38:27;;;;;;;3.13;2.83;;;13.10;99.90;;;;;;5051446;28;20519;-48
2021/05/14 00:40:53;;;;;;;2.83;2.60;;;13.20;99.90;;;;;;5051200;28;20451;-49
2021/05/14 00:43:19;;;;;;;3.13;2.53;;;13.00;99.90;;;;;;5050781;28;20472;-48
2021/05/14 00:45:46;;;;;;;2.40;2.20;;;12.60;99.90;;;;;;5050987;28;20618;-48
2021/05/14 00:48:12;;;;;;;2.20;2.00;;;13.40;99.90;;;;;;5050839;28;20529;-48
2021/05/14 00:50:39;;;;;;;3.23;1.97;;;12.90;99.90;;;;;;5050710;28;20581;-49
2021/05/14 00:53:05;;;;;;;2.50;2.30;;;13.30;99.90;;;;;;5050507;28;20432;-48
2021/05/14 00:55:32;;;;;;;2.10;1.83;;;13.40;99.90;;;;;;5050631;28;20840;-49
2021/05/14 00:57:59;;;;;;;3.53;2.00;;;13.10;99.90;;;;;;5050588;28;20926;-49
2021/05/14 01:00:25;;;;;;;2.03;1.83;;;13.20;99.90;;;;;;5050882;28;20492;-48
2021/05/14 01:02:53;;;;;;;2.50;1.60;;;13.10;99.90;;;;;;5053996;28;20538;-48
2021/05/14 01:05:21;;;;;;;2.03;1.80;;;13.40;99.90;;;;;;5050832;28;20528;-49
2021/05/14 01:07:47;;;;;;;3.20;1.80;;;13.10;99.90;;;;;;5050690;28;20437;-47
2021/05/14 01:10:14;;;;;;;1.63;1.50;;;13.40;99.90;;;;;;5050581;28;20481;-49
2021/05/14 01:12:40;;;;;;;2.13;1.70;;;13.20;99.90;;;;;;5032459;28;20454;-48
2021/05/14 01:15:08;;;;;;;1.90;1.70;;;13.10;99.90;;;;;;5050888;28;20478;-48
2021/05/14 01:17:34;;;;;;;2.07;1.83;;;13.20;99.90;;;;;;5050929;28;20878;-49
2021/05/14 01:20:01;;;;;;;4.23;1.90;;;13.10;99.90;;;;;;5050816;28;20441;-49
2021/05/14 01:22:28;;;;;;;2.07;1.87;;;13.20;99.90;;;;;;5050353;28;20467;-49
2021/05/14 01:24:55;;;;;;;3.13;2.83;;;13.30;99.90;;;;;;5050584;28;20487;-48
2021/05/14 01:27:21;;;;;;;1.60;1.50;;;13.10;99.90;;;;;;5050423;28;20430;-48
2021/05/14 01:29:48;;;;;;;3.70;1.93;;;13.10;99.90;;;;;;5050306;28;20861;-48
2021/05/14 01:32:14;;;;;;;2.07;1.80;;;12.50;99.90;;;;;;5050224;28;20475;-48
2021/05/14 01:34:40;;;;;;;2.37;2.17;;;13.10;99.90;;;;;;5050067;28;20929;-47
2021/05/14 01:37:07;;;;;;;4.13;1.40;;;13.00;99.90;;;;;;5050452;28;20425;-48
2021/05/14 01:39:34;;;;;;;2.37;2.10;;;12.90;99.90;;;;;;5053288;28;20547;-48
2021/05/14 01:42:02;;;;;;;1.60;1.50;;;13.20;99.90;;;;;;5053850;28;20551;-48
2021/05/14 01:44:29;;;;;;;2.10;1.87;;;12.70;99.90;;;;;;5053708;28;20846;-48
2021/05/14 01:46:55;;;;;;;2.33;1.93;;;13.30;99.90;;;;;;5053731;28;20437;-48
2021/05/14 01:49:21;;;;;;;2.13;1.93;;;12.80;99.90;;;;;;5053740;28;20473;-48
2021/05/14 01:51:48;;;;;;;1.90;1.70;;;12.80;99.90;;;;;;5053858;28;20978;-48
2021/05/14 01:54:14;;;;;;;1.60;1.50;;;12.80;99.90;;;;;;5053272;28;20430;-48
2021/05/14 01:56:45;;;;;;;4.17;2.07;;;12.80;99.90;;;;;;5053541;28;20435;-48
2021/05/14 01:59:11;;;;;;;2.37;1.93;;;12.70;99.90;;;;;;5053711;28;20476;-48
2021/05/14 02:01:37;;;;;;;3.17;2.10;;;13.10;99.90;;;;;;5053536;28;20501;-48
2021/05/14 02:04:04;;;;;;;2.03;1.83;;;12.70;99.90;;;;;;5053433;28;20481;-48
2021/05/14 02:06:30;;;;;;;1.80;1.63;;;12.80;99.90;;;;;;5053637;28;20526;-50
2021/05/14 02:08:56;;;;;;;2.33;1.80;;;12.90;99.90;;;;;;5055708;28;20836;-50
2021/05/14 02:11:22;;;;;;;1.83;1.73;;;13.10;99.90;;;;;;5055011;28;20496;-50
2021/05/14 02:13:49;;;;;;;2.37;2.17;;;12.80;99.90;;;;;;5055523;28;20449;-49
2021/05/14 02:16:16;;;;;;;2.10;1.90;;;12.40;99.90;;;;;;5055520;28;20434;-50
2021/05/14 02:18:44;;;;;;;2.43;1.83;;;12.60;99.90;;;;;;5060075;28;20474;-50
2021/05/14 02:21:10;;;;;;;2.07;1.87;;;12.80;99.90;;;;;;5055277;28;20450;-50
2021/05/14 02:23:37;;;;;;;3.33;2.13;;;12.80;99.90;;;;;;5053733;28;20435;-49
2021/05/14 02:26:04;;;;;;;2.00;1.80;;;12.90;99.90;;;;;;5054222;28;20876;-48
2021/05/14 02:28:30;;;;;;;2.30;2.10;;;12.60;99.90;;;;;;5055451;28;20540;-50
2021/05/14 02:30:57;;;;;;;2.37;2.17;;;12.90;99.90;;;;;;5055155;28;20505;-50
2021/05/14 02:33:24;;;;;;;3.37;2.50;;;12.50;99.90;;;;;;5054440;28;20429;-50
2021/05/14 02:35:50;;;;;;;2.10;1.90;;;12.60;99.90;;;;;;5054593;28;20437;-50
2021/05/14 02:38:16;;;;;;;3.30;2.17;;;12.70;99.90;;;;;;5036474;28;20448;-50
2021/05/14 02:40:43;;;;;;;3.17;2.50;;;12.80;99.90;;;;;;5054038;28;20461;-50
2021/05/14 02:43:09;;;;;;;5.00;2.20;;;13.00;99.90;;;;;;5053502;28;20999;-50
2021/05/14 02:45:36;;;;;;;3.53;2.07;;;12.70;99.90;;;;;;5054232;28;20934;-49
2021/05/14 02:48:04;;;;;;;3.30;2.77;;;12.20;99.90;;;;;;5054214;28;20545;-50
2021/05/14 02:50:30;;;;;;;2.60;2.40;;;12.70;99.90;;;;;;5053619;28;21023;-50
2021/05/14 02:52:56;;;;;;;4.07;2.50;;;12.20;99.90;;;;;;5053957;28;20438;-50
2021/05/14 02:55:22;;;;;;;3.20;2.90;;;12.40;99.90;;;;;;5054454;28;20441;-50
2021/05/14 02:57:51;;;;;;;2.93;2.73;;;12.90;99.90;;;;;;5054099;28;20451;-50
2021/05/14 03:00:19;;;;;;;2.37;2.17;;;12.80;99.90;;;;;;5054091;28;20425;-50
2021/05/14 03:02:45;;;;;;;3.57;2.07;;;12.70;99.90;;;;;;5053164;28;20464;-49
2021/05/14 03:05:13;;;;;;;4.43;2.53;;;13.00;99.90;;;;;;5053994;28;20502;-49
2021/05/14 03:07:39;;;;;;;3.23;2.70;;;12.80;99.90;;;;;;5053455;28;20789;-49
2021/05/14 03:10:07;;;;;;;4.60;2.90;;;12.90;99.90;;;;;;5034925;28;20482;-49
2021/05/14 03:12:33;;;;;;;3.73;2.77;;;12.80;99.90;;;;;;5053127;28;20478;-50
2021/05/14 03:14:59;;;;;;;3.07;2.70;;;12.90;99.90;;;;;;5053396;28;20430;-50
2021/05/14 03:17:25;;;;;;;2.50;2.30;;;12.90;99.90;;;;;;5053422;28;20433;-49
2021/05/14 03:19:52;;;;;;;7.57;3.53;;;12.90;99.90;;;;;;5053150;28;20961;-49
2021/05/14 03:22:19;;;;;;;3.33;3.03;;;12.70;99.90;;;;;;5052702;28;20740;-48
2021/05/14 03:24:45;;;;;;;3.90;3.60;;;12.90;99.90;;;;;;5052844;28;20437;-49
2021/05/14 03:27:11;;;;;;;4.87;3.80;;;13.00;99.90;;;;;;5053090;28;20434;-49
2021/05/14 03:29:37;;;;;;;4.03;3.63;;;12.80;99.90;;;;;;5052939;28;20505;-50
2021/05/14 03:32:04;;;;;;;3.90;3.50;;;12.90;99.90;;;;;;5052831;28;20460;-49
2021/05/14 03:34:31;;;;;;;4.70;3.77;;;13.00;99.90;;;;;;5054562;28;20569;-49
2021/05/14 03:36:57;;;;;;;3.93;3.30;;;12.90;99.90;;;;;;5056648;28;20435;-49
2021/05/14 03:39:26;;;;;;;6.03;4.40;;;12.90;99.90;;;;;;5052859;28;20431;-50
2021/05/14 03:41:53;;;;;;;4.83;4.30;;;12.80;99.90;;;;;;5052861;28;20462;-49
2021/05/14 03:44:20;;;;;;;5.17;4.10;;;12.80;99.90;;;;;;5052260;28;20557;-49
2021/05/14 03:46:46;;;;;;;4.77;4.27;;;13.10;99.90;;;;;;5052846;28;20460;-49
2021/05/14 03:49:12;;;;;;;4.63;4.13;;;12.90;99.90;;;;;;5052086;28;20978;-49
2021/05/14 03:51:38;;;;;;;4.70;4.20;;;12.40;99.90;;;;;;5052139;28;20463;-49
2021/05/14 03:54:06;;;;;;;3.83;3.53;;;13.00;99.90;;;;;;5052073;28;20429;-49
2021/05/14 03:56:33;;;;;;;7.10;4.20;;;12.80;99.90;;;;;;5052384;28;20520;-49
2021/05/14 03:59:00;;;;;;;5.07;4.57;;;13.20;99.90;;;;;;5052235;28;20432;-48
2021/05/14 04:01:27;;;;;;;5.00;3.90;;;12.90;99.90;;;;;;5051266;28;20583;-49
2021/05/14 04:03:53;;;;;;;6.40;3.97;;;12.30;99.90;;;;;;5051972;28;20505;-50
2021/05/14 04:06:20;;;;;;;4.30;3.90;;;13.00;99.90;;;;;;5053517;28;20460;-50
2021/05/14 04:08:46;;;;;;;5.10;4.37;;;12.80;99.90;;;;;;5052516;28;20410;-50
2021/05/14 04:11:31;;;;;;;4.80;4.07;;;12.50;99.90;;;;;;5052355;28;20520;-49
2021/05/14 04:16:42;;;;;;;3.43;3.13;;;12.80;99.90;;;;;;5052124;28;20774;-49
2021/05/14 04:19:08;;;;;;;3.97;3.50;;;12.80;99.90;;;;;;5051924;28;20799;-49
2021/05/14 04:21:34;;;;;;;5.00;4.50;;;12.90;99.90;;;;;;5051880;28;20451;-50
2021/05/14 04:24:01;;;;;;;3.37;3.07;;;13.00;99.90;;;;;;5051374;28;20785;-50
2021/05/14 04:26:27;;;;;;;3.77;3.13;;;12.90;99.90;;;;;;5034130;28;20943;-50
2021/05/14 04:28:53;;;;;;;4.00;3.10;;;13.00;99.90;;;;;;5051711;28;20410;-49
2021/05/14 04:31:20;;;;;;;3.70;2.90;;;12.90;99.90;;;;;;5051648;28;20491;-50
2021/05/14 04:33:47;;;;;;;3.03;2.73;;;12.70;99.90;;;;;;5051734;28;20895;-50
2021/05/14 04:36:13;;;;;;;2.70;2.50;;;13.10;99.90;;;;;;5051872;28;20521;-50
2021/05/14 04:38:40;;;;;;;5.50;2.93;;;13.00;99.90;;;;;;5051545;28;20527;-49
2021/05/14 04:41:06;;;;;;;2.97;2.77;;;13.00;99.90;;;;;;5051823;28;20469;-49
2021/05/14 04:43:32;;;;;;;3.17;2.87;;;12.80;99.90;;;;;;5051127;28;20469;-49
2021/05/14 04:45:58;;;;;;;3.30;2.80;;;12.90;99.90;;;;;;5051804;28;20760;-50
2021/05/14 04:48:25;;;;;;;2.23;2.00;;;12.80;99.90;;;;;;5052017;28;20439;-50
2021/05/14 04:50:52;;;;;;;2.23;2.03;;;13.00;99.90;;;;;;5051718;28;20845;-49
2021/05/14 04:53:21;;;;;;;2.50;2.30;;;12.30;99.90;;;;;;5055906;28;20432;-49
2021/05/14 04:55:47;;;;;;;2.37;2.13;;;13.20;99.90;;;;;;5051393;28;20433;-50
2021/05/14 04:58:13;;;;;;;2.57;2.20;;;12.90;99.90;;;;;;5051646;28;20467;-50
2021/05/14 05:00:39;;;;;;;2.40;2.20;;;13.00;99.90;;;;;;5051268;28;20459;-50
2021/05/14 05:03:07;;;;;;;2.57;2.27;;;12.70;99.90;;;;;;5033601;28;20445;-50
2021/05/14 05:05:36;;;;;;;2.27;2.07;;;12.80;99.90;;;;;;5051983;28;20435;-50
2021/05/14 05:08:03;;;;;;;2.30;2.10;;;12.90;99.90;;;;;;5051727;28;20427;-50
2021/05/14 05:10:29;;;;;;;2.10;1.90;;;12.90;99.90;;;;;;5051794;28;20483;-50
2021/05/14 05:12:55;;;;;;;3.57;2.30;;;13.00;99.90;;;;;;5052468;28;20449;-50
2021/05/14 05:15:22;;;;;;;2.80;2.07;;;12.80;99.90;;;;;;5055481;28;20448;-50
2021/05/14 05:17:49;;;;;;;2.67;2.30;;;12.90;99.90;;;;;;5037971;28;20467;-50
2021/05/14 05:20:16;;;;;;;3.47;3.00;;;12.90;99.90;;;;;;5055702;28;20884;-50
2021/05/14 05:22:43;;;;;;;2.67;2.27;;;12.60;99.90;;;;;;5054977;28;20445;-49
2021/05/14 05:25:10;;;;;;;3.43;3.13;;;13.00;99.90;;;;;;5055110;28;20470;-50
2021/05/14 05:27:36;;;;;;;2.73;2.53;;;12.90;99.90;;;;;;5055616;28;20423;-50
2021/05/14 05:30:03;;;;;;;3.40;3.10;;;13.10;99.90;;;;;;5055033;28;20484;-50
2021/05/14 05:32:29;;;;;;;3.30;3.00;;;12.80;99.90;;;;;;5054288;28;20481;-47
2021/05/14 05:34:56;;;;;;;3.60;3.27;;;13.20;99.90;;;;;;5054422;28;20473;-47
2021/05/14 05:37:24;;;;;;;3.13;2.83;;;13.10;99.90;;;;;;5054404;28;20452;-46
2021/05/14 05:39:51;;;;;;;4.00;2.37;;;13.20;99.90;;;;;;5053790;28;20424;-46
2021/05/14 05:42:17;;;;;;;2.60;2.20;;;13.20;99.90;;;;;;5053544;28;20486;-47
2021/05/14 05:44:43;;;;;;;3.40;2.80;;;13.10;99.90;;;;;;5053783;28;20853;-47
2021/05/14 05:47:10;;;;;;;3.33;2.53;;;13.00;99.90;;;;;;5053825;28;20464;-46
2021/05/14 05:49:36;;;;;;;3.17;2.30;;;12.80;99.90;;;;;;5053839;28;20824;-46
2021/05/14 05:52:02;;;;;;;2.47;2.27;;;12.70;99.90;;;;;;5053919;28;20467;-46
2021/05/14 05:54:28;;;;;;;2.33;2.00;;;12.60;99.90;;;;;;5053501;28;20429;-46
2021/05/14 05:56:57;;;;;;;4.30;2.60;;;12.40;99.90;;;;;;5053755;28;20536;-46
2021/05/14 05:59:23;;;;;;;3.33;2.57;;;12.80;99.90;;;;;;5053859;28;20525;-47
2021/05/14 06:01:50;;;;;;;3.63;3.33;;;12.70;99.90;;;;;;5053679;28;20445;-46
2021/05/14 06:04:17;;;;;;;2.83;2.53;;;13.00;99.90;;;;;;5053379;28;20479;-46
2021/05/14 06:06:45;;;;;;;3.37;3.00;;;12.80;99.90;;;;;;5053511;28;20795;-46
2021/05/14 06:09:11;;;;;;;3.30;3.00;;;12.30;99.90;;;;;;5054789;28;20619;-46
2021/05/14 06:11:37;;;;;;;4.10;2.80;;;12.70;99.90;;;;;;5056470;28;20892;-45
2021/05/14 06:14:04;;;;;;;3.90;3.60;;;12.60;99.90;;;;;;5053078;28;20799;-48
2021/05/14 06:16:30;;;;;;;3.87;2.67;;;12.90;99.90;;;;;;5053367;28;20443;-47
2021/05/14 06:19:02;;;;;;;3.30;3.00;;;12.80;99.90;;;;;;5053484;28;20901;-47
2021/05/14 06:21:28;;;;;;;3.23;2.70;;;12.70;99.90;;;;;;5053326;28;20883;-48
2021/05/14 06:23:54;;;;;;;3.97;3.20;;;13.00;99.90;;;;;;5052721;28;20429;-48
2021/05/14 06:26:20;;;;;;;3.43;3.13;;;12.90;99.90;;;;;;5052993;28;20980;-48
2021/05/14 06:28:47;;;;;;;5.50;4.27;;;12.90;99.90;;;;;;5036041;28;20443;-48
2021/05/14 06:31:14;;;;;;;3.43;3.13;;;12.90;99.90;;;;;;5053516;28;20525;-47
2021/05/14 06:33:40;;;;;;;3.50;3.20;;;12.40;99.90;;;;;;5053132;28;20931;-49
2021/05/14 06:36:06;;;;;;;5.03;3.43;;;13.10;99.90;;;;;;5053434;28;20422;-48
2021/05/14 06:38:33;;;;;;;3.77;3.17;;;13.20;99.90;;;;;;5053493;28;20459;-48
2021/05/14 06:41:00;;;;;;;3.30;2.93;;;13.20;99.90;;;;;;5035283;28;20470;-47
2021/05/14 06:43:26;;;;;;;3.97;3.67;;;12.90;99.90;;;;;;5053174;28;20462;-48
2021/05/14 06:45:53;;;;;;;3.47;3.00;;;12.80;99.90;;;;;;5035851;28;20451;-48
2021/05/14 06:48:20;;;;;;;5.37;4.87;;;13.00;99.90;;;;;;5053137;28;20439;-48
2021/05/14 06:50:46;;;;;;;4.80;4.10;;;12.50;99.90;;;;;;5053327;28;20479;-48
2021/05/14 06:53:12;;;;;;;4.57;4.10;;;12.90;99.90;;;;;;5052784;28;20497;-48
2021/05/14 06:55:39;;;;;;;4.40;4.00;;;12.80;99.90;;;;;;5053391;28;20417;-48
2021/05/14 06:58:05;;;;;;;5.50;4.60;;;12.90;99.90;;;;;;5052804;28;20430;-48
2021/05/14 07:00:32;;;;;;;3.90;3.60;;;12.90;99.90;;;;;;5052926;28;20454;-48
2021/05/14 07:02:58;;;;;;;3.90;3.50;;;12.90;99.90;;;;;;5052631;28;20436;-47
2021/05/14 07:05:25;;;;;;;3.83;3.50;;;12.90;99.90;;;;;;5053204;28;20662;-48
2021/05/14 07:07:53;;;;;;;3.70;3.40;;;13.10;99.90;;;;;;5052860;28;20456;-48
2021/05/14 07:10:19;;;;;;;4.63;4.20;;;12.80;99.90;;;;;;5052471;28;20517;-47
2021/05/14 07:12:45;;;;;;;3.90;3.50;;;13.10;99.90;;;;;;5052367;28;20468;-48
2021/05/14 07:15:12;;;;;;;5.93;3.97;;;13.00;99.90;;;;;;5052656;28;20445;-48
2021/05/14 07:17:38;;;;;;;4.80;4.40;;;13.20;99.90;;;;;;5051983;28;20424;-50
2021/05/14 07:20:07;;;;;;;5.43;4.70;;;13.00;99.90;;;;;;5052387;28;20432;-47
2021/05/14 07:22:34;;;;;;;5.00;4.50;;;13.30;99.90;;;;;;5052016;28;20436;-48
2021/05/14 07:25:00;;;;;;;6.17;4.70;;;13.40;99.90;;;;;;5051841;28;20444;-48
2021/05/14 07:27:26;;;;;;;5.47;4.97;;;13.10;99.90;;;;;;5056705;28;20433;-48
2021/05/14 07:29:52;;;;;;;5.67;5.00;;;13.20;99.90;;;;;;5053077;28;20477;-46
2021/05/14 07:32:19;;;;;;;4.80;4.23;;;13.30;99.90;;;;;;5051874;28;20465;-47
2021/05/14 07:34:45;;;;;;;3.90;3.60;;;13.40;99.90;;;;;;5052070;28;20452;-48
2021/05/14 07:37:11;;;;;;;3.73;3.43;;;13.50;99.90;;;;;;5052012;28;20510;-48
2021/05/14 07:39:39;;;;;;;4.10;3.70;;;13.30;99.90;;;;;;5052113;28;20435;-48
2021/05/14 07:42:06;;;;;;;6.10;4.03;;;12.80;99.90;;;;;;5034196;28;20997;-48
2021/05/14 07:44:32;;;;;;;3.50;3.10;;;13.10;99.90;;;;;;5051740;28;20846;-47
2021/05/14 07:46:58;;;;;;;5.10;3.07;;;13.40;99.90;;;;;;5052022;28;20467;-47
2021/05/14 07:49:25;;;;;;;4.83;3.63;;;13.30;99.90;;;;;;5051968;28;20583;-46
2021/05/14 07:51:51;;;;;;;4.73;3.23;;;13.20;99.90;;;;;;5052062;28;20450;-46
2021/05/14 07:54:17;;;;;;;3.23;2.93;;;13.30;99.90;;;;;;5051794;28;20470;-47
2021/05/14 07:56:44;;;;;;;3.30;3.00;;;12.80;99.90;;;;;;5052129;28;20429;-48
2021/05/14 07:59:11;;;;;;;3.50;2.30;;;13.00;99.90;;;;;;5053451;28;20766;-46
2021/05/14 08:01:37;;;;;;;3.30;2.30;;;13.20;99.90;;;;;;5052950;28;20448;-48
2021/05/14 08:04:04;;;;;;;4.33;2.60;;;13.20;99.90;;;;;;5052038;28;20445;-47
2021/05/14 08:06:31;;;;;;;4.10;2.63;;;13.20;99.90;;;;;;5052099;28;20462;-47
2021/05/14 08:08:59;;;;;;;2.20;2.00;;;13.30;99.90;;;;;;5051683;28;20437;-48
2021/05/14 08:11:25;;;;;;;2.77;2.47;;;13.20;99.90;;;;;;5033367;28;21030;-46
2021/05/14 08:13:52;;;;;;;3.10;2.37;;;13.20;99.90;;;;;;5050910;28;20452;-46
2021/05/14 08:16:20;;;;;;;3.30;2.53;;;13.00;99.90;;;;;;5051470;28;20952;-47
2021/05/14 08:18:46;;;;;;;3.23;2.50;;;13.30;99.90;;;;;;5051931;28;20486;-48
2021/05/14 08:21:12;;;;;;;2.83;2.00;;;13.60;99.90;;;;;;5051884;28;20454;-47
2021/05/14 08:23:39;;;;;;;2.63;2.10;;;13.40;99.90;;;;;;5051494;28;20515;-47
2021/05/14 08:26:05;;;;;;;4.10;2.80;;;13.80;99.90;;;;;;5051613;28;20956;-47
2021/05/14 08:28:32;;;;;;;4.37;2.60;;;13.60;99.90;;;;;;5051423;28;20474;-47
2021/05/14 08:30:59;;;;;;;4.00;1.97;;;13.60;99.90;;;;;;5051201;28;20998;-47
2021/05/14 08:33:26;;;;;;;4.60;2.63;;;13.70;99.90;;;;;;5051354;28;20812;-47
2021/05/14 08:35:53;;;;;;;3.20;1.77;;;13.70;99.90;;;;;;5051213;28;20440;-48
2021/05/14 08:38:19;;;;;;;3.83;2.20;;;13.60;99.90;;;;;;5051331;28;20496;-47
2021/05/14 08:40:45;;;;;;;2.40;2.00;;;13.60;99.90;;;;;;5051591;28;20450;-45
2021/05/14 08:43:12;;;;;;;3.10;2.33;;;13.80;99.90;;;;;;5051915;28;20434;-47
2021/05/14 08:45:39;;;;;;;4.53;3.80;;;13.10;99.90;;;;;;5054821;28;20928;-48
2021/05/14 08:48:11;;;;;;;4.50;2.53;;;13.50;99.90;;;;;;5053561;28;20448;-47
2021/05/14 08:50:39;;;;;;;3.03;2.57;;;13.60;99.90;;;;;;5038316;28;20554;-47
2021/05/14 08:53:05;;;;;;;6.00;2.77;;;13.10;99.90;;;;;;5054923;28;20433;-48
2021/05/14 08:55:32;;;;;;;3.57;3.27;;;13.50;99.90;;;;;;5055216;28;20437;-47
2021/05/14 08:57:58;;;;;;;2.40;2.20;;;13.40;99.90;;;;;;5055256;28;20934;-46
2021/05/14 09:00:25;;;;;;;4.00;2.40;;;13.40;99.90;;;;;;5054871;28;20828;-48
2021/05/14 09:02:53;;;;;;;3.20;2.30;;;13.50;99.90;;;;;;5055814;28;20436;-46
2021/05/14 09:05:22;;;;;;;1.97;1.73;;;13.30;99.90;;;;;;5056664;28;20443;-46
2021/05/14 09:07:49;;;;;;;2.50;2.30;;;13.30;99.90;;;;;;5056828;28;20774;-46
2021/05/14 09:10:15;;;;;;;3.60;2.13;;;13.40;99.90;;;;;;5055751;28;20476;-48
2021/05/14 09:12:44;;;;;;;3.10;2.40;;;13.50;99.90;;;;;;5054561;28;20455;-47
2021/05/14 09:15:24;;;;;;;2.47;2.27;;;13.50;99.90;;;;;;5054647;28;20944;-47
2021/05/14 09:18:10;;;;;;;4.40;2.50;;;13.10;99.90;;;;;;5054751;28;20476;-47
2021/05/14 09:20:40;;;;;;;3.07;2.57;;;13.40;99.90;;;;;;5054397;28;20495;-47
2021/05/14 09:23:30;;;;;;;2.43;1.90;;;13.20;99.90;;;;;;5054489;28;20773;-46
2021/05/14 09:25:58;;;;;;;2.43;1.90;;;13.00;99.90;;;;;;5054636;28;20496;-47
2021/05/14 09:28:26;;;;;;;3.50;2.40;;;13.30;99.90;;;;;;5054949;28;20445;-47
2021/05/14 09:31:09;;;;;;;4.00;2.70;;;12.80;99.90;;;;;;5054295;28;20489;-46
2021/05/14 09:33:37;;;;;;;4.40;3.07;;;13.10;99.90;;;;;;5036191;28;20441;-46
2021/05/14 09:36:06;;;;;;;2.80;2.60;;;13.30;99.90;;;;;;5054531;28;20448;-46
2021/05/14 09:38:44;;;;;;;5.90;3.03;;;13.30;99.90;;;;;;5054458;28;20429;-46
2021/05/14 09:41:35;;;;;;;4.13;3.30;;;13.30;99.90;;;;;;5054187;28;20443;-47
2021/05/14 09:44:04;;;;;;;3.77;3.20;;;13.30;99.90;;;;;;5054166;28;20790;-46
2021/05/14 09:46:35;;;;;;;3.30;3.00;;;13.20;99.90;;;;;;5054683;28;20438;-46
2021/05/14 09:49:04;;;;;;;3.83;3.40;;;13.40;99.90;;;;;;5055006;28;20938;-47
2021/05/14 09:51:32;;;;;;;3.27;2.97;;;13.30;99.90;;;;;;5054195;28;21067;-48
2021/05/14 09:54:18;;;;;;;5.97;2.40;;;13.20;99.90;;;;;;5053855;28;20448;-46
2021/05/14 09:56:45;;;;;;;8.50;4.50;;;13.40;99.90;;;;;;5054136;28;20442;-47
2021/05/14 09:59:11;;;;;;;5.43;2.93;;;13.60;99.90;;;;;;5054526;28;20790;-47
2021/05/14 10:01:38;;;;;;;5.33;2.43;;;13.30;99.90;;;;;;5056485;28;20819;-47
2021/05/14 10:04:06;;;;;;;3.63;1.77;;;13.70;99.90;;;;;;5054381;28;20458;-46
2021/05/14 10:06:36;;;;;;;6.13;2.00;;;13.20;99.90;;;;;;5036295;28;20596;-47
2021/05/14 10:09:07;;;;;;;2.67;2.20;;;13.40;99.90;;;;;;5054212;28;20846;-47
2021/05/14 10:11:34;;;;;;;5.50;2.20;;;13.20;99.90;;;;;;5053780;28;20508;-47
2021/05/14 10:14:03;;;;;;;6.93;2.57;;;13.20;99.90;;;;;;5053617;28;20433;-47
2021/05/14 10:16:30;;;;;;;3.60;2.10;;;12.70;99.90;;;;;;5036663;28;20493;-46
2021/05/14 10:18:57;;;;;;;4.90;1.80;;;13.20;99.90;;;;;;5055495;28;20529;-46
2021/05/14 10:21:25;;;;;;;4.27;2.13;;;13.30;99.90;;;;;;5055604;28;20460;-46
2021/05/14 10:23:52;;;;;;;4.30;3.10;;;13.20;99.90;;;;;;5055354;28;20441;-47
2021/05/14 10:26:18;;;;;;;6.97;2.00;;;13.40;99.90;;;;;;5037333;28;20448;-47
2021/05/14 10:28:46;;;;;;;4.27;2.47;;;13.00;99.90;;;;;;5055443;28;20420;-48
2021/05/14 10:31:21;;;;;;;3.30;2.40;;;13.10;99.90;;;;;;5037394;28;20487;-47
2021/05/14 10:33:52;;;;;;;4.83;2.40;;;13.40;99.90;;;;;;5054698;28;20435;-46
2021/05/14 10:36:44;;;;;;;6.63;3.07;;;13.10;99.90;;;;;;5053698;28;20442;-48
2021/05/14 10:39:15;;;;;;;3.57;2.40;;;13.50;99.90;;;;;;5053845;28;20538;-48
2021/05/14 10:41:50;;;;;;;5.90;2.70;;;13.40;99.90;;;;;;5053561;28;20570;-47
2021/05/14 10:44:17;;;;;;;5.10;3.00;;;13.20;99.90;;;;;;5053094;28;20493;-47
2021/05/14 10:46:44;;;;;;;4.50;2.90;;;13.40;99.90;;;;;;5035547;28;20561;-47
2021/05/14 10:49:12;;;;;;;4.87;3.40;;;13.70;99.90;;;;;;5053450;28;20791;-46
2021/05/14 10:52:01;;;;;;;4.40;2.50;;;13.60;99.90;;;;;;5052839;28;20595;-46
2021/05/14 10:54:50;;;;;;;4.80;2.53;;;14.30;99.90;;;;;;5052195;28;20518;-48
2021/05/14 10:57:46;;;;;;;9.23;6.50;;;14.00;99.90;;;;;;5035236;28;20453;-47
2021/05/14 11:00:35;;;;;;;6.07;2.50;;;14.10;99.90;;;;;;5053124;28;20875;-46
2021/05/14 11:03:15;;;;;;;4.03;2.80;;;14.00;99.90;;;;;;5052913;28;20437;-48
2021/05/14 11:05:42;;;;;;;4.43;2.70;;;14.30;99.90;;;;;;5052790;28;20493;-49
2021/05/14 11:08:09;;;;;;;7.50;2.73;;;14.40;99.90;;;;;;5053305;28;20480;-46
2021/05/14 11:10:37;;;;;;;3.97;2.50;;;14.50;99.90;;;;;;5053005;28;20485;-47
2021/05/14 11:13:34;;;;;;;6.27;3.00;;;14.60;99.90;;;;;;5052176;28;20519;-45
2021/05/14 11:16:34;;;;;;;9.77;5.40;;;14.60;99.90;;;;;;5054200;28;20430;-47
2021/05/14 11:19:17;;;;;;;5.10;2.80;;;15.00;99.90;;;;;;5053569;28;20441;-47
2021/05/14 11:22:11;;;;;;;3.30;2.80;;;15.00;99.90;;;;;;5052731;28;20526;-47
2021/05/14 11:24:45;;;;;;;3.67;2.53;;;15.20;99.90;;;;;;5052386;28;20919;-48
2021/05/14 11:27:14;;;;;;;4.33;2.63;;;15.10;99.90;;;;;;5034480;28;20497;-46
2021/05/14 11:29:46;;;;;;;5.50;3.03;;;15.40;99.90;;;;;;5052227;28;20432;-48
2021/05/14 11:32:24;;;;;;;4.37;2.57;;;15.20;99.90;;;;;;5047652;22;21056;-46
2021/05/14 11:35:03;;;;;;;5.87;2.53;;;15.60;99.90;;;;;;5051613;28;20418;-47
2021/05/14 11:37:31;;;;;;;6.17;3.47;;;15.50;99.90;;;;;;5051645;28;20442;-47
2021/05/14 11:40:04;;;;;;;5.43;2.93;;;15.10;99.90;;;;;;5051520;28;20508;-46
2021/05/14 11:42:31;;;;;;;3.17;2.73;;;16.00;99.90;;;;;;5051621;28;20792;-47
2021/05/14 11:44:59;;;;;;;5.77;3.70;;;15.40;99.90;;;;;;5033012;28;20823;-46
2021/05/14 11:47:26;;;;;;;3.50;3.03;;;15.30;99.90;;;;;;5051164;28;20470;-46
2021/05/14 11:49:54;;;;;;;5.23;3.23;;;15.20;99.90;;;;;;5051206;28;20544;-47
2021/05/14 11:52:41;;;;;;;4.30;3.57;;;15.50;99.90;;;;;;5049944;28;20459;-46
2021/05/14 11:55:10;;;;;;;4.23;3.70;;;15.20;99.90;;;;;;5051367;28;20427;-46
2021/05/14 11:57:38;;;;;;;5.70;3.60;;;14.80;99.90;;;;;;5050347;28;20431;-46
2021/05/14 12:00:07;;;;;;;4.30;3.57;;;14.60;99.90;;;;;;5050645;28;20557;-46
2021/05/14 12:02:41;;;;;;;5.00;3.43;;;14.30;99.90;;;;;;5032768;28;20467;-46
2021/05/14 12:05:10;;;;;;;6.00;3.80;;;14.50;99.90;;;;;;5050307;28;20538;-47
2021/05/14 12:07:37;;;;;;;4.30;3.33;;;14.40;99.90;;;;;;5050650;28;20495;-47
2021/05/14 12:10:06;;;;;;;5.73;3.80;;;14.30;99.90;;;;;;5049806;28;20480;-47
2021/05/14 12:12:33;;;;;;;4.70;3.27;;;14.40;99.90;;;;;;5049661;28;20466;-46
2021/05/14 12:15:21;;;;;;;7.80;5.17;;;14.50;99.90;;;;;;5050085;28;20430;-47
2021/05/14 12:17:50;;;;;;;5.77;3.73;;;14.40;99.90;;;;;;5050228;28;20435;-47
2021/05/14 12:20:28;;;;;;;4.90;3.70;;;14.30;99.90;;;;;;5050287;28;20426;-45
2021/05/14 12:22:56;;;;;;;18.63;4.40;;;14.40;99.90;;;;;;5049481;28;20426;-47
2021/05/14 12:25:23;;;;;;;6.33;4.33;;;14.30;99.90;;;;;;5050357;28;20761;-46
2021/05/14 12:27:49;;;;;;;6.60;3.43;;;13.90;99.90;;;;;;5050171;28;20521;-47
2021/05/14 12:30:17;;;;;;;5.83;4.30;;;14.20;99.90;;;;;;5050191;28;20500;-46
2021/05/14 12:32:58;;;;;;;5.87;4.90;;;14.00;99.90;;;;;;5049786;28;20453;-46
2021/05/14 12:35:25;;;;;;;5.00;3.83;;;13.90;99.90;;;;;;5050714;28;20445;-47
2021/05/14 12:37:56;;;;;;;4.80;3.83;;;14.10;99.90;;;;;;5050201;28;20465;-46
2021/05/14 12:40:37;;;;;;;5.70;4.10;;;13.90;99.90;;;;;;5050228;28;20954;-47
2021/05/14 12:43:08;;;;;;;6.50;3.47;;;14.10;99.90;;;;;;5050287;28;20527;-46
2021/05/14 12:45:36;;;;;;;3.63;3.30;;;13.70;99.90;;;;;;5050901;28;20468;-46
2021/05/14 12:48:04;;;;;;;6.10;4.50;;;13.90;99.90;;;;;;5032441;28;20472;-46
2021/05/14 12:50:31;;;;;;;8.90;5.00;;;14.00;99.90;;;;;;5050443;28;20472;-46
2021/05/14 12:52:57;;;;;;;7.30;5.30;;;13.60;99.90;;;;;;5049414;28;20433;-45
2021/05/14 12:55:24;;;;;;;6.77;3.97;;;13.10;99.90;;;;;;5032001;28;20457;-46
2021/05/14 12:58:01;;;;;;;4.90;3.83;;;13.50;99.90;;;;;;5050447;28;20521;-46